Terminal Aerodrome Forecast
Issued by NWS

Home | Current Version | Previous Version | Text Only | Print | Product List | Glossary Off
Versions: 1 2 3 4 5 6 7 8 9 10 11 12 13 14 15 16 17

000
FTUS43 KIWX 242300
TAFSBN
TAF
KSBN 242335Z 2500/2524 15008KT P6SM SCT045
     FM250300 15004KT P6SM SCT050
      TEMPO 2509/2513 5SM BR BKN030
     FM251400 19006KT P6SM SCT035 BKN200=

USA.gov is the U.S. government's official web portal to all federal, state and local government web resources and services.